Hai Yang Shi You 708 — BFDL — position and weather

sailwx.info

Track history (hours):
 
Tides and Currents Weather Stations Pressure Air Temp Water Temp Dewpoint Dewpoint Depression Visibility Wind Speed Wind Dir Waves Ship Positions

Hai Yang Shi You 708

Last reported at 2015-Jan-16 17:11 UTC. Time now 2015-Jan-28 09:17 UTC.
Position N 22°04' E 114°20'.
Warning: this ship's position is 11 days out of date.

Length 105 m; draft 7 m.

Type: Other ship. MMSI: 413303010.

Date/timePositionNaut miles runAvg speedWind from/ knotsBaromVisibWave heightAir tempDewpointWater temp
2015-Jan-16 17:11N 22°04' E 114°20'6 8.7
2015-Jan-16 16:27N 22°06' E 114°13'1210.8
2015-Jan-16 15:20N 22°16' E 114°06'12 9.7
2015-Jan-16 14:07N 22°22' E 113°55'5 8.8
2015-Jan-16 13:31N 22°27' E 113°53'1 1.2
2015-Jan-16 12:20N 22°28' E 113°54'0 0.0
2015-Jan-16 11:32N 22°28' E 113°54'0 0.0
2015-Jan-16 10:32N 22°28' E 113°54'0 0.0
2015-Jan-16 09:32N 22°28' E 113°54'0 0.0
2015-Jan-16 08:32N 22°28' E 113°54'0 0.0
2015-Jan-16 07:32N 22°28' E 113°54'0 0.0
2015-Jan-16 06:26N 22°28' E 113°54'0 0.0
2015-Jan-16 05:32N 22°28' E 113°54'0 0.0
2015-Jan-16 04:32N 22°28' E 113°54'0 0.0
2015-Jan-16 03:32N 22°28' E 113°54'0 0.0
2015-Jan-16 02:32N 22°28' E 113°54'0 0.0
2015-Jan-16 01:32N 22°28' E 113°54'0 0.0
2015-Jan-16 00:26N 22°28' E 113°54'0 0.0
2015-Jan-15 22:26N 22°28' E 113°54'0 0.0
2015-Jan-15 21:32N 22°28' E 113°54'0 0.0
2015-Jan-15 20:08N 22°28' E 113°54'0 0.0
2015-Jan-15 19:26N 22°28' E 113°54'0 0.0
2015-Jan-15 18:20N 22°28' E 113°54'0 0.0
2015-Jan-15 17:26N 22°28' E 113°54'0 0.0
2015-Jan-15 15:26N 22°28' E 113°54'0 0.0
2015-Jan-15 14:26N 22°28' E 113°54'0 0.0
2015-Jan-15 13:26N 22°28' E 113°54'0 0.0
2015-Jan-15 11:20N 22°28' E 113°54'0 0.0
2015-Jan-15 10:26N 22°28' E 113°54'0 0.0
2015-Jan-15 09:32N 22°28' E 113°54'0 0.0
2015-Jan-15 08:32N 22°28' E 113°54'0 0.0
2015-Jan-15 07:32N 22°28' E 113°54'0 0.0
2015-Jan-15 06:32N 22°28' E 113°54'0 0.0
2015-Jan-15 05:32N 22°28' E 113°54'0 0.0
2015-Jan-15 04:32N 22°28' E 113°54'0 0.0
2015-Jan-15 03:32N 22°28' E 113°54'0 0.0
2015-Jan-15 02:32N 22°28' E 113°54'0 0.0
2015-Jan-15 01:32N 22°28' E 113°54'0 0.0
2015-Jan-15 00:26N 22°28' E 113°54'0 0.0
2015-Jan-14 23:26N 22°28' E 113°54'0 0.0
2015-Jan-14 22:32N 22°28' E 113°54'0 0.0
2015-Jan-14 21:32N 22°28' E 113°54'0 0.0
2015-Jan-14 20:32N 22°28' E 113°54'0 0.0
2015-Jan-14 19:32N 22°28' E 113°54'0 0.0
2015-Jan-14 18:32N 22°28' E 113°54'0 0.0
2015-Jan-14 17:26N 22°28' E 113°54'0 0.0
2015-Jan-14 16:32N 22°28' E 113°54'0 0.0
2015-Jan-14 15:32N 22°28' E 113°54'0 0.0
2015-Jan-14 14:32N 22°28' E 113°54'0 0.0
2015-Jan-14 13:32N 22°28' E 113°54'0 0.0
2015-Jan-14 12:26N 22°28' E 113°54'0 0.0
2015-Jan-14 11:26N 22°28' E 113°54'0 0.0
2015-Jan-14 10:32N 22°28' E 113°54'0 0.0
2015-Jan-14 09:32N 22°28' E 113°54'1 1.0
2015-Jan-14 08:34N 22°27' E 113°54'10 9.9
2015-Jan-14 07:34N 22°19' E 113°48'1110.8
2015-Jan-14 06:34N 22°29' E 113°45'2311.4
2015-Jan-14 04:33N 22°50' E 113°35'1010.2
2015-Jan-14 03:33N 22°60' E 113°32'7 7.4
2015-Jan-14 02:33N 23°06' E 113°27'2 1.5
2015-Jan-14 01:23N 23°05' E 113°25'0 0.0
2015-Jan-14 00:05N 23°05' E 113°25'0 0.0
2015-Jan-13 23:29N 23°05' E 113°25'0 0.0
2015-Jan-13 22:29N 23°05' E 113°25'0 0.0
2015-Jan-13 21:29N 23°05' E 113°25'0 0.0
2015-Jan-13 20:23N 23°05' E 113°25'0 0.0
2015-Jan-13 19:17N 23°05' E 113°25'0 0.0
2015-Jan-13 18:29N 23°05' E 113°25'0 0.0
2015-Jan-13 17:29N 23°05' E 113°25'0 0.0
2015-Jan-13 16:29N 23°05' E 113°25'0 0.0
2015-Jan-13 15:29N 23°05' E 113°25'0 0.0
2015-Jan-13 14:29N 23°05' E 113°25'0 0.0
2015-Jan-13 13:29N 23°05' E 113°25'0 0.0
2015-Jan-13 12:29N 23°05' E 113°25'0 0.0
2015-Jan-13 11:29N 23°05' E 113°25'0 0.0
2015-Jan-13 10:29N 23°05' E 113°25'0 0.0
2015-Jan-13 09:29N 23°05' E 113°25'0 0.0
2015-Jan-13 08:29N 23°05' E 113°25'0 0.0
2015-Jan-13 07:29N 23°05' E 113°25'0 0.0
2015-Jan-13 06:17N 23°05' E 113°25'0 0.0
2015-Jan-13 05:29N 23°05' E 113°25'0 0.0
2015-Jan-13 04:23N 23°05' E 113°25'0 0.0
2015-Jan-13 03:17N 23°05' E 113°25'0 0.0
2015-Jan-13 02:29N 23°05' E 113°25'0 0.1
2015-Jan-13 01:23N 23°05' E 113°25'0 0.3
2015-Jan-13 00:20N 23°05' E 113°24'0 0.0
2015-Jan-12 23:32N 23°05' E 113°24'0 0.0
2015-Jan-12 22:20N 23°05' E 113°24'0 0.0
2015-Jan-12 21:32N 23°05' E 113°24'0 0.0
2015-Jan-12 20:26N 23°05' E 113°24'0 0.0
2015-Jan-12 19:26N 23°05' E 113°24'0 0.0
2015-Jan-12 18:32N 23°05' E 113°24'0 0.0
2015-Jan-12 17:32N 23°05' E 113°24'0 0.0
2015-Jan-12 16:20N 23°05' E 113°24'0 0.0
2015-Jan-12 15:26N 23°05' E 113°24'0 0.0
2015-Jan-12 14:26N 23°05' E 113°24'0 0.0
2015-Jan-12 13:26N 23°05' E 113°24'0 0.0
2015-Jan-12 12:14N 23°05' E 113°24'0 0.0
2015-Jan-12 11:32N 23°05' E 113°24'0 0.0
2015-Jan-12 10:32N 23°05' E 113°24'0 0.0
2015-Jan-12 09:32N 23°05' E 113°24'0 0.0
2015-Jan-12 08:32N 23°05' E 113°24'0 0.0
2015-Jan-12 07:32N 23°05' E 113°24'0 0.0
2015-Jan-12 06:26N 23°05' E 113°24'0 0.0
2015-Jan-12 05:32N 23°05' E 113°24'0 0.0
2015-Jan-12 04:32N 23°05' E 113°24'0 0.0
2015-Jan-12 03:26N 23°05' E 113°24'0 0.0
2015-Jan-12 02:32N 23°05' E 113°24'0 0.0
2015-Jan-12 01:32N 23°05' E 113°24'0 0.0
2015-Jan-12 00:26N 23°05' E 113°24'0 0.0
2015-Jan-11 23:20N 23°05' E 113°24'0 0.0
2015-Jan-11 22:32N 23°05' E 113°24'0 0.0
2015-Jan-11 21:08N 23°05' E 113°24'0 0.0
2015-Jan-11 20:26N 23°05' E 113°24'0 0.0
2015-Jan-11 19:20N 23°05' E 113°24'0 0.0
2015-Jan-11 18:26N 23°05' E 113°24'0 0.0
2015-Jan-11 17:32N 23°05' E 113°24'0 0.0
2015-Jan-11 16:32N 23°05' E 113°24'0 0.0
2015-Jan-11 15:32N 23°05' E 113°24'0 0.0
2015-Jan-11 14:20N 23°05' E 113°24'0 0.0
2015-Jan-11 13:32N 23°05' E 113°24'0 0.0
2015-Jan-11 12:32N 23°05' E 113°24'0 0.0
2015-Jan-11 11:26N 23°05' E 113°24'0 0.0
2015-Jan-11 10:32N 23°05' E 113°24'0 0.0
2015-Jan-11 09:32N 23°05' E 113°24'0 0.0
2015-Jan-11 08:26N 23°05' E 113°24'  
Track history (hours):
 
Tides and Currents Weather Stations Pressure Air Temp Water Temp Dewpoint Dewpoint Depression Visibility Wind Speed Wind Dir Waves Ship Positions

Hai Yang Shi You 708

Last reported at 2015-Jan-16 17:11 UTC. Time now 2015-Jan-28 09:17 UTC.
Position N 22°04' E 114°20'.
Warning: this ship's position is 11 days out of date.

Length 105 m; draft 7 m.

Type: Other ship. MMSI: 413303010.

Date/timePositionNaut miles runAvg speedWind from/ knotsBaromVisibWave heightAir tempDewpointWater temp
2015-Jan-16 17:11N 22°04' E 114°20'6 8.7
2015-Jan-16 16:27N 22°06' E 114°13'1210.8
2015-Jan-16 15:20N 22°16' E 114°06'12 9.7
2015-Jan-16 14:07N 22°22' E 113°55'5 8.8
2015-Jan-16 13:31N 22°27' E 113°53'1 1.2
2015-Jan-16 12:20N 22°28' E 113°54'0 0.0
2015-Jan-16 11:32N 22°28' E 113°54'0 0.0
2015-Jan-16 10:32N 22°28' E 113°54'0 0.0
2015-Jan-16 09:32N 22°28' E 113°54'0 0.0
2015-Jan-16 08:32N 22°28' E 113°54'0 0.0
2015-Jan-16 07:32N 22°28' E 113°54'0 0.0
2015-Jan-16 06:26N 22°28' E 113°54'0 0.0
2015-Jan-16 05:32N 22°28' E 113°54'0 0.0
2015-Jan-16 04:32N 22°28' E 113°54'0 0.0
2015-Jan-16 03:32N 22°28' E 113°54'0 0.0
2015-Jan-16 02:32N 22°28' E 113°54'0 0.0
2015-Jan-16 01:32N 22°28' E 113°54'0 0.0
2015-Jan-16 00:26N 22°28' E 113°54'0 0.0
2015-Jan-15 22:26N 22°28' E 113°54'0 0.0
2015-Jan-15 21:32N 22°28' E 113°54'0 0.0
2015-Jan-15 20:08N 22°28' E 113°54'0 0.0
2015-Jan-15 19:26N 22°28' E 113°54'0 0.0
2015-Jan-15 18:20N 22°28' E 113°54'0 0.0
2015-Jan-15 17:26N 22°28' E 113°54'0 0.0
2015-Jan-15 15:26N 22°28' E 113°54'0 0.0
2015-Jan-15 14:26N 22°28' E 113°54'0 0.0
2015-Jan-15 13:26N 22°28' E 113°54'0 0.0
2015-Jan-15 11:20N 22°28' E 113°54'0 0.0
2015-Jan-15 10:26N 22°28' E 113°54'0 0.0
2015-Jan-15 09:32N 22°28' E 113°54'0 0.0
2015-Jan-15 08:32N 22°28' E 113°54'0 0.0
2015-Jan-15 07:32N 22°28' E 113°54'0 0.0
2015-Jan-15 06:32N 22°28' E 113°54'0 0.0
2015-Jan-15 05:32N 22°28' E 113°54'0 0.0
2015-Jan-15 04:32N 22°28' E 113°54'0 0.0
2015-Jan-15 03:32N 22°28' E 113°54'0 0.0
2015-Jan-15 02:32N 22°28' E 113°54'0 0.0
2015-Jan-15 01:32N 22°28' E 113°54'0 0.0
2015-Jan-15 00:26N 22°28' E 113°54'0 0.0
2015-Jan-14 23:26N 22°28' E 113°54'0 0.0
2015-Jan-14 22:32N 22°28' E 113°54'0 0.0
2015-Jan-14 21:32N 22°28' E 113°54'0 0.0
2015-Jan-14 20:32N 22°28' E 113°54'0 0.0
2015-Jan-14 19:32N 22°28' E 113°54'0 0.0
2015-Jan-14 18:32N 22°28' E 113°54'0 0.0
2015-Jan-14 17:26N 22°28' E 113°54'0 0.0
2015-Jan-14 16:32N 22°28' E 113°54'0 0.0
2015-Jan-14 15:32N 22°28' E 113°54'0 0.0
2015-Jan-14 14:32N 22°28' E 113°54'0 0.0
2015-Jan-14 13:32N 22°28' E 113°54'0 0.0
2015-Jan-14 12:26N 22°28' E 113°54'0 0.0
2015-Jan-14 11:26N 22°28' E 113°54'0 0.0
2015-Jan-14 10:32N 22°28' E 113°54'0 0.0
2015-Jan-14 09:32N 22°28' E 113°54'1 1.0
2015-Jan-14 08:34N 22°27' E 113°54'10 9.9
2015-Jan-14 07:34N 22°19' E 113°48'1110.8
2015-Jan-14 06:34N 22°29' E 113°45'2311.4
2015-Jan-14 04:33N 22°50' E 113°35'1010.2
2015-Jan-14 03:33N 22°60' E 113°32'7 7.4
2015-Jan-14 02:33N 23°06' E 113°27'2 1.5
2015-Jan-14 01:23N 23°05' E 113°25'0 0.0
2015-Jan-14 00:05N 23°05' E 113°25'0 0.0
2015-Jan-13 23:29N 23°05' E 113°25'0 0.0
2015-Jan-13 22:29N 23°05' E 113°25'0 0.0
2015-Jan-13 21:29N 23°05' E 113°25'0 0.0
2015-Jan-13 20:23N 23°05' E 113°25'0 0.0
2015-Jan-13 19:17N 23°05' E 113°25'0 0.0
2015-Jan-13 18:29N 23°05' E 113°25'0 0.0
2015-Jan-13 17:29N 23°05' E 113°25'0 0.0
2015-Jan-13 16:29N 23°05' E 113°25'0 0.0
2015-Jan-13 15:29N 23°05' E 113°25'0 0.0
2015-Jan-13 14:29N 23°05' E 113°25'0 0.0
2015-Jan-13 13:29N 23°05' E 113°25'0 0.0
2015-Jan-13 12:29N 23°05' E 113°25'0 0.0
2015-Jan-13 11:29N 23°05' E 113°25'0 0.0
2015-Jan-13 10:29N 23°05' E 113°25'0 0.0
2015-Jan-13 09:29N 23°05' E 113°25'0 0.0
2015-Jan-13 08:29N 23°05' E 113°25'0 0.0
2015-Jan-13 07:29N 23°05' E 113°25'0 0.0
2015-Jan-13 06:17N 23°05' E 113°25'0 0.0
2015-Jan-13 05:29N 23°05' E 113°25'0 0.0
2015-Jan-13 04:23N 23°05' E 113°25'0 0.0
2015-Jan-13 03:17N 23°05' E 113°25'0 0.0
2015-Jan-13 02:29N 23°05' E 113°25'0 0.1
2015-Jan-13 01:23N 23°05' E 113°25'0 0.3
2015-Jan-13 00:20N 23°05' E 113°24'0 0.0
2015-Jan-12 23:32N 23°05' E 113°24'0 0.0
2015-Jan-12 22:20N 23°05' E 113°24'0 0.0
2015-Jan-12 21:32N 23°05' E 113°24'0 0.0
2015-Jan-12 20:26N 23°05' E 113°24'0 0.0
2015-Jan-12 19:26N 23°05' E 113°24'0 0.0
2015-Jan-12 18:32N 23°05' E 113°24'0 0.0
2015-Jan-12 17:32N 23°05' E 113°24'0 0.0
2015-Jan-12 16:20N 23°05' E 113°24'0 0.0
2015-Jan-12 15:26N 23°05' E 113°24'0 0.0
2015-Jan-12 14:26N 23°05' E 113°24'0 0.0
2015-Jan-12 13:26N 23°05' E 113°24'0 0.0
2015-Jan-12 12:14N 23°05' E 113°24'0 0.0
2015-Jan-12 11:32N 23°05' E 113°24'0 0.0
2015-Jan-12 10:32N 23°05' E 113°24'0 0.0
2015-Jan-12 09:32N 23°05' E 113°24'0 0.0
2015-Jan-12 08:32N 23°05' E 113°24'0 0.0
2015-Jan-12 07:32N 23°05' E 113°24'0 0.0
2015-Jan-12 06:26N 23°05' E 113°24'0 0.0
2015-Jan-12 05:32N 23°05' E 113°24'0 0.0
2015-Jan-12 04:32N 23°05' E 113°24'0 0.0
2015-Jan-12 03:26N 23°05' E 113°24'0 0.0
2015-Jan-12 02:32N 23°05' E 113°24'0 0.0
2015-Jan-12 01:32N 23°05' E 113°24'0 0.0
2015-Jan-12 00:26N 23°05' E 113°24'0 0.0
2015-Jan-11 23:20N 23°05' E 113°24'0 0.0
2015-Jan-11 22:32N 23°05' E 113°24'0 0.0
2015-Jan-11 21:08N 23°05' E 113°24'0 0.0
2015-Jan-11 20:26N 23°05' E 113°24'0 0.0
2015-Jan-11 19:20N 23°05' E 113°24'0 0.0
2015-Jan-11 18:26N 23°05' E 113°24'0 0.0
2015-Jan-11 17:32N 23°05' E 113°24'0 0.0
2015-Jan-11 16:32N 23°05' E 113°24'0 0.0
2015-Jan-11 15:32N 23°05' E 113°24'0 0.0
2015-Jan-11 14:20N 23°05' E 113°24'0 0.0
2015-Jan-11 13:32N 23°05' E 113°24'0 0.0
2015-Jan-11 12:32N 23°05' E 113°24'0 0.0
2015-Jan-11 11:26N 23°05' E 113°24'0 0.0
2015-Jan-11 10:32N 23°05' E 113°24'0 0.0
2015-Jan-11 09:32N 23°05' E 113°24'0 0.0
2015-Jan-11 08:26N 23°05' E 113°24'  

Dump ship's entire track history